Time;durP1;ratioP1;P1;durP2;ratioP2;P2;SDS_P1;SDS_P2;PMS_P1;PMS_P2;Temp;Humidity;BMP_temperature;BMP_pressure;BME280_temperature;BME280_humidity;BME280_pressure;Samples;Min_cycle;Max_cycle;Signal;HPM_P1;HPM_P2
2021/04/27 00:00:29;;;;;;;8.93;4.97;;;;;;;0.62;72.22;92290.81;2098238;28;20026;-84
2021/04/27 00:01:30;;;;;;;6.20;4.82;;;;;;;0.53;73.72;92280.66;2106628;28;20020;-83
2021/04/27 00:02:30;;;;;;;6.28;4.82;;;;;;;0.61;72.17;92282.16;2115103;28;20020;-85
2021/04/27 00:03:32;;;;;;;7.10;4.90;;;;;;;0.54;72.87;92284.03;2106490;28;20557;-83
2021/04/27 00:04:32;;;;;;;5.03;4.38;;;;;;;0.58;72.38;92274.28;2104013;28;20043;-83
2021/04/27 00:05:34;;;;;;;7.95;4.25;;;;;;;0.39;73.51;92276.09;2098036;28;20400;-83
2021/04/27 00:06:34;;;;;;;12.05;4.90;;;;;;;0.49;72.85;92279.91;2106738;28;20103;-83
2021/04/27 00:07:35;;;;;;;4.93;4.38;;;;;;;0.45;73.72;92281.78;2106544;28;20462;-84
2021/04/27 00:08:39;;;;;;;5.32;4.60;;;;;;;0.32;73.43;92276.09;2098132;28;20024;-83
2021/04/27 00:09:41;;;;;;;4.88;4.35;;;;;;;0.38;73.55;92271.22;2107228;27;20024;-84
2021/04/27 00:10:41;;;;;;;5.85;4.18;;;;;;;0.40;73.09;92272.38;2106657;28;20065;-84
2021/04/27 00:11:42;;;;;;;5.97;4.50;;;;;;;0.32;73.81;92270.84;2106237;28;20078;-83
2021/04/27 00:12:44;;;;;;;7.80;4.40;;;;;;;0.33;74.07;92277.59;2114889;28;20051;-85
2021/04/27 00:13:45;;;;;;;6.55;4.90;;;;;;;0.31;73.84;92271.97;2114900;28;20023;-84
2021/04/27 00:14:45;;;;;;;7.13;4.60;;;;;;;0.33;73.12;92267.09;2098113;28;20055;-85
2021/04/27 00:15:46;;;;;;;5.45;4.20;;;;;;;0.30;73.38;92267.81;2097957;28;20016;-83
2021/04/27 00:16:47;;;;;;;8.57;4.47;;;;;;;0.29;73.57;92258.44;2093838;28;20024;-84
2021/04/27 00:17:49;;;;;;;6.97;5.15;;;;;;;0.37;73.37;92261.84;2106327;28;20119;-84
2021/04/27 00:18:50;;;;;;;6.40;4.65;;;;;;;0.23;73.26;92259.94;2101708;28;20046;-83
2021/04/27 00:19:50;;;;;;;7.28;4.88;;;;;;;0.22;73.24;92261.81;2098054;28;20028;-83
2021/04/27 00:20:51;;;;;;;6.47;4.60;;;;;;;0.21;73.62;92256.91;2106259;28;20118;-84
2021/04/27 00:21:52;;;;;;;7.93;5.30;;;;;;;0.24;73.34;92258.81;2098020;28;20150;-83
2021/04/27 00:22:56;;;;;;;5.80;4.57;;;;;;;0.24;73.49;92256.19;2098038;28;20024;-84
2021/04/27 00:23:57;;;;;;;5.65;4.50;;;;;;;0.23;72.75;92257.31;2097652;28;20404;-83
2021/04/27 00:24:59;;;;;;;6.28;4.25;;;;;;;0.34;73.47;92255.44;2089754;28;20036;-83
2021/04/27 00:25:59;;;;;;;4.68;4.28;;;;;;;0.18;72.51;92249.78;2098047;28;20385;-84
2021/04/27 00:27:00;;;;;;;9.52;4.75;;;;;;;0.14;73.50;92246.41;2097958;28;20051;-84
2021/04/27 00:28:01;;;;;;;5.20;4.68;;;;;;;0.17;73.67;92248.25;2089826;28;20058;-83
2021/04/27 00:29:03;;;;;;;6.55;4.50;;;;;;;0.15;73.78;92248.66;2089732;28;20025;-84
2021/04/27 00:30:08;;;;;;;6.90;4.70;;;;;;;0.17;73.45;92250.91;2091598;28;20031;-84
2021/04/27 00:31:09;;;;;;;7.90;4.75;;;;;;;0.21;73.56;92249.03;2098498;28;20143;-83
2021/04/27 00:32:10;;;;;;;5.43;4.55;;;;;;;0.22;73.26;92248.69;2098090;28;20024;-84
2021/04/27 00:33:11;;;;;;;7.35;5.18;;;;;;;0.30;72.54;92248.69;2097694;28;20024;-83
2021/04/27 00:34:12;;;;;;;5.70;4.35;;;;;;;0.20;73.23;92256.16;2091107;28;20041;-84
2021/04/27 00:35:13;;;;;;;5.00;4.50;;;;;;;0.25;72.98;92241.91;2089623;28;20917;-84
2021/04/27 00:36:14;;;;;;;9.82;4.25;;;;;;;0.15;72.83;92246.03;2097672;28;20052;-84
2021/04/27 00:37:14;;;;;;;5.32;4.43;;;;;;;0.07;73.94;92246.38;2098054;28;20515;-84
2021/04/27 00:38:15;;;;;;;5.75;4.50;;;;;;;0.03;73.73;92238.47;2089550;28;20071;-83
2021/04/27 00:39:16;;;;;;;5.53;4.85;;;;;;;0.04;73.64;92241.84;2089671;28;20032;-83
2021/04/27 00:40:18;;;;;;;5.93;4.75;;;;;;;0.10;73.30;92245.63;2097715;28;20025;-83
2021/04/27 00:41:20;;;;;;;6.82;4.55;;;;;;;-0.01;74.38;92238.44;2092304;28;20025;-84
2021/04/27 00:42:31;;;;;;;7.47;4.32;;;;;;;-0.03;73.04;92243.34;2088756;28;20083;-83
2021/04/27 00:43:31;;;;;;;6.28;4.78;;;;;;;0.01;73.86;92245.22;2083219;28;20071;-84
2021/04/27 00:44:32;;;;;;;7.97;4.60;;;;;;;-0.07;73.70;92239.94;2079524;28;20116;-83
2021/04/27 00:45:33;;;;;;;6.22;4.88;;;;;;;-0.09;73.27;92244.81;2098869;28;20017;-83
2021/04/27 00:46:34;;;;;;;6.80;4.55;;;;;;;-0.15;72.67;92242.91;2100184;28;20024;-82
2021/04/27 00:47:35;;;;;;;5.68;4.47;;;;;;;-0.15;73.46;92241.03;2096405;28;20020;-84
2021/04/27 00:48:36;;;;;;;5.45;4.38;;;;;;;-0.07;74.25;92241.81;2105496;28;20020;-84
2021/04/27 00:49:37;;;;;;;5.53;5.03;;;;;;;-0.18;74.46;92236.50;2092722;28;20043;-83
2021/04/27 00:50:39;;;;;;;6.72;5.07;;;;;;;-0.17;74.69;92237.28;2105822;28;20365;-83
2021/04/27 00:51:40;;;;;;;7.63;4.38;;;;;;;-0.16;74.48;92241.41;2106437;28;20423;-84
2021/04/27 00:52:43;;;;;;;6.15;5.18;;;;;;;-0.15;74.08;92242.91;2097795;28;20016;-82
2021/04/27 00:53:44;;;;;;;8.45;5.53;;;;;;;-0.10;74.33;92235.41;2089932;28;20021;-84
2021/04/27 00:54:45;;;;;;;7.65;4.72;;;;;;;0.03;73.32;92233.22;2089628;28;20531;-84
2021/04/27 00:55:45;;;;;;;4.95;4.50;;;;;;;-0.01;73.15;92225.31;2097671;28;20500;-83
2021/04/27 00:56:46;;;;;;;5.43;4.90;;;;;;;-0.07;73.43;92226.81;2089453;28;20017;-83
2021/04/27 00:57:47;;;;;;;5.38;4.38;;;;;;;-0.09;74.15;92230.91;2097666;28;20059;-85
2021/04/27 00:58:48;;;;;;;7.75;5.47;;;;;;;-0.09;73.70;92226.44;2097756;28;20117;-83
2021/04/27 00:59:49;;;;;;;5.70;4.88;;;;;;;-0.07;73.48;92232.06;2089261;28;20027;-84
2021/04/27 01:00:51;;;;;;;5.90;4.68;;;;;;;-0.20;74.44;92238.78;2089750;28;20021;-84
2021/04/27 01:01:52;;;;;;;5.60;4.65;;;;;;;-0.08;74.64;92227.19;2089946;28;20032;-84
2021/04/27 01:02:53;;;;;;;6.95;4.93;;;;;;;-0.10;74.41;92239.94;2089362;28;20025;-83
2021/04/27 01:03:54;;;;;;;6.97;4.32;;;;;;;-0.18;74.56;92231.25;2105868;28;20078;-84
2021/04/27 01:04:55;;;;;;;9.18;4.80;;;;;;;-0.14;73.86;92241.78;2097738;28;20086;-83
2021/04/27 01:05:56;;;;;;;8.30;5.18;;;;;;;-0.14;74.03;92234.66;2089296;28;20068;-83
2021/04/27 01:06:56;;;;;;;7.78;4.90;;;;;;;-0.15;74.00;92237.66;2097684;28;20031;-83
2021/04/27 01:08:28;;;;;;;5.00;4.38;;;;;;;-0.15;73.80;92227.16;2089351;28;20500;-83
2021/04/27 01:09:35;;;;;;;9.77;4.65;;;;;;;-0.14;74.12;92232.03;2105865;28;20023;-83
2021/04/27 01:11:21;;;;;;;5.45;4.53;;;;;;;-0.10;74.54;92230.16;2098588;28;20514;-84
2021/04/27 01:12:47;;;;;;;7.85;4.38;;;;;;;-0.13;74.65;92230.16;2076073;28;20029;-83
2021/04/27 01:13:48;;;;;;;5.40;4.68;;;;;;;-0.16;74.06;92228.28;2079164;28;20033;-83
2021/04/27 01:15:00;;;;;;;5.65;4.65;;;;;;;-0.14;73.99;92232.03;2089464;28;20036;-84
2021/04/27 01:16:02;;;;;;;6.90;5.28;;;;;;;-0.15;73.89;92235.03;2099207;28;20048;-82
2021/04/27 01:17:06;;;;;;;6.10;4.57;;;;;;;-0.19;74.05;92234.25;2089745;28;20021;-84
2021/04/27 01:18:09;;;;;;;5.75;4.68;;;;;;;-0.15;74.44;92229.78;2098620;28;20188;-83
2021/04/27 01:19:15;;;;;;;6.72;4.78;;;;;;;-0.25;73.98;92228.63;2097818;28;20107;-83
2021/04/27 01:20:23;;;;;;;7.43;4.75;;;;;;;-0.23;74.31;92228.25;2090844;28;20576;-84
2021/04/27 01:21:27;;;;;;;5.55;5.00;;;;;;;-0.28;74.29;92232.72;2091284;28;20017;-84
2021/04/27 01:23:08;;;;;;;5.07;4.50;;;;;;;-0.29;74.58;92228.59;2090263;28;20473;-84
2021/04/27 01:24:11;;;;;;;5.40;4.22;;;;;;;-0.26;73.89;92221.88;2098446;28;20058;-83
2021/04/27 01:25:15;;;;;;;5.18;4.70;;;;;;;-0.27;74.59;92222.97;2098199;28;20036;-83
2021/04/27 01:26:19;;;;;;;6.43;4.45;;;;;;;-0.29;73.92;92227.84;2098016;28;20024;-84
2021/04/27 01:27:21;;;;;;;5.60;4.47;;;;;;;-0.31;74.85;92224.81;2106520;28;20026;-84
2021/04/27 01:28:25;;;;;;;7.57;4.57;;;;;;;-0.32;73.51;92223.34;2097580;28;20027;-83
2021/04/27 01:29:28;;;;;;;5.40;4.90;;;;;;;-0.30;73.92;92221.84;2098017;28;20099;-83
2021/04/27 01:30:36;;;;;;;5.30;4.80;;;;;;;-0.24;74.64;92221.50;2089698;28;20560;-84
2021/04/27 01:31:38;;;;;;;6.60;4.70;;;;;;;-0.27;74.28;92218.47;2091835;28;20032;-84
2021/04/27 01:32:39;;;;;;;6.60;4.85;;;;;;;-0.36;74.65;92225.94;2087546;28;20032;-83
2021/04/27 01:33:40;;;;;;;7.22;4.63;;;;;;;-0.20;73.99;92224.88;2081072;28;20029;-84
2021/04/27 01:34:45;;;;;;;5.60;4.47;;;;;;;-0.28;73.64;92219.59;2081339;28;20031;-83
2021/04/27 01:35:46;;;;;;;7.82;4.70;;;;;;;-0.22;74.14;92216.63;2089546;28;20023;-84
2021/04/27 01:36:48;;;;;;;6.38;4.78;;;;;;;-0.28;73.85;92214.34;2080849;28;20448;-84
2021/04/27 01:37:50;;;;;;;8.80;5.03;;;;;;;-0.26;73.82;92212.13;2097637;28;20097;-84
2021/04/27 01:38:50;;;;;;;6.15;4.80;;;;;;;-0.31;73.58;92217.72;2096560;28;20511;-83
2021/04/27 01:39:52;;;;;;;4.75;4.35;;;;;;;-0.31;73.79;92215.09;2088045;28;20032;-83
2021/04/27 01:40:55;;;;;;;8.75;4.68;;;;;;;-0.18;73.85;92215.50;2088192;28;20067;-82
2021/04/27 01:41:57;;;;;;;5.78;4.80;;;;;;;-0.27;73.78;92215.09;2085842;28;20027;-83
2021/04/27 01:43:00;;;;;;;7.18;4.95;;;;;;;-0.28;73.53;92210.97;2081550;28;20029;-83
2021/04/27 01:44:03;;;;;;;5.40;4.82;;;;;;;-0.27;73.44;92209.84;2082473;28;20084;-84
2021/04/27 01:45:06;;;;;;;5.22;4.57;;;;;;;-0.24;73.71;92211.00;2097421;28;20032;-83
2021/04/27 01:46:07;;;;;;;5.25;4.75;;;;;;;-0.21;73.78;92207.63;2097758;28;20028;-84
2021/04/27 01:47:10;;;;;;;6.93;4.47;;;;;;;-0.19;73.21;92211.38;2104685;28;20024;-83
2021/04/27 01:48:12;;;;;;;5.30;4.70;;;;;;;-0.14;72.67;92211.03;2105505;28;20802;-82
2021/04/27 01:49:17;;;;;;;6.85;4.63;;;;;;;-0.15;73.08;92219.28;2089210;28;20021;-83
2021/04/27 01:50:18;;;;;;;5.35;4.72;;;;;;;-0.14;73.59;92211.03;2098676;28;20055;-84
2021/04/27 01:51:19;;;;;;;5.07;4.45;;;;;;;-0.18;73.27;92210.25;2098060;28;20496;-83
2021/04/27 01:52:20;;;;;;;6.38;4.63;;;;;;;-0.19;72.24;92216.63;2106029;28;20472;-84
2021/04/27 01:53:21;;;;;;;6.30;4.57;;;;;;;-0.17;72.78;92213.66;2105588;28;20016;-83
2021/04/27 01:54:28;;;;;;;6.00;4.38;;;;;;;-0.11;72.61;92209.53;2098782;28;20082;-84
2021/04/27 01:55:29;;;;;;;8.38;4.50;;;;;;;-0.12;71.98;92206.16;2104936;28;20020;-84
2021/04/27 01:56:30;;;;;;;7.07;4.20;;;;;;;-0.13;71.94;92203.88;2089080;28;20075;-83
2021/04/27 01:57:30;;;;;;;7.30;4.45;;;;;;;-0.18;71.23;92205.00;2105785;28;20483;-85
2021/04/27 01:58:31;;;;;;;5.60;4.82;;;;;;;-0.18;72.96;92209.50;2105771;28;20024;-82
2021/04/27 01:59:32;;;;;;;5.97;4.40;;;;;;;-0.10;72.31;92200.53;2088882;28;20025;-83
2021/04/27 02:00:33;;;;;;;6.78;4.47;;;;;;;-0.02;70.54;92196.81;2080508;28;20168;-84
2021/04/27 02:01:35;;;;;;;6.63;4.63;;;;;;;-0.03;71.08;92203.19;2095095;28;20315;-83
2021/04/27 02:02:35;;;;;;;4.38;3.97;;;;;;;-0.05;72.04;92197.53;2097513;28;20025;-83
2021/04/27 02:04:49;;;;;;;4.65;4.10;;;;;;;-0.24;72.72;92203.88;2147814;27;20469;-80
2021/04/27 02:05:50;;;;;;;7.50;4.43;;;;;;;-0.25;72.35;92199.75;2129772;27;20031;-81
2021/04/27 02:06:52;;;;;;;4.68;4.13;;;;;;;-0.29;72.82;92201.59;2112971;28;20055;-81
2021/04/27 02:07:52;;;;;;;6.45;4.05;;;;;;;-0.27;73.13;92200.09;2104538;28;20024;-80
2021/04/27 02:09:06;;;;;;;6.15;4.20;;;;;;;-0.25;72.69;92199.75;2112780;28;20506;-82
2021/04/27 02:10:10;;;;;;;5.30;4.22;;;;;;;-0.27;72.65;92192.22;2114473;28;20175;-84
2021/04/27 02:11:11;;;;;;;4.90;3.67;;;;;;;-0.34;71.92;92199.34;2112851;28;20024;-82
2021/04/27 02:12:12;;;;;;;8.00;4.05;;;;;;;-0.37;73.33;92192.94;2106376;28;20040;-84
2021/04/27 02:13:15;;;;;;;6.07;4.07;;;;;;;-0.38;73.08;92191.44;2112722;28;20035;-82
2021/04/27 02:14:17;;;;;;;6.43;4.32;;;;;;;-0.34;73.24;92192.22;2130195;27;20475;-83
2021/04/27 02:15:22;;;;;;;4.97;4.07;;;;;;;-0.40;73.40;92195.53;2121225;28;20114;-83
2021/04/27 02:16:27;;;;;;;6.38;4.47;;;;;;;-0.41;72.90;92186.16;2105372;28;20035;-81
2021/04/27 02:17:27;;;;;;;5.68;4.30;;;;;;;-0.42;72.65;92190.66;2114041;27;20476;-81
2021/04/27 02:18:50;;;;;;;5.95;4.20;;;;;;;-0.48;72.73;92194.00;2121133;28;20076;-84
2021/04/27 02:19:53;;;;;;;4.55;3.88;;;;;;;-0.46;72.86;92194.41;2115754;28;20046;-83
2021/04/27 02:20:59;;;;;;;6.00;3.88;;;;;;;-0.41;72.69;92194.03;2105099;28;20024;-84
2021/04/27 02:22:03;;;;;;;6.38;3.78;;;;;;;-0.45;72.72;92194.03;2114020;27;20039;-83
2021/04/27 02:23:04;;;;;;;7.10;4.00;;;;;;;-0.51;72.22;92193.63;2124888;27;20027;-81
2021/04/27 02:24:06;;;;;;;6.15;4.00;;;;;;;-0.56;73.10;92199.25;2120476;27;20039;-81
2021/04/27 02:25:09;;;;;;;7.68;3.88;;;;;;;-0.60;72.59;92190.59;2112663;28;20020;-81
2021/04/27 02:26:13;;;;;;;4.65;4.25;;;;;;;-0.56;73.21;92190.63;2098388;28;20042;-82
2021/04/27 02:27:14;;;;;;;6.07;4.13;;;;;;;-0.57;72.76;92194.34;2104656;28;20121;-83
2021/04/27 02:28:15;;;;;;;5.38;3.67;;;;;;;-0.54;73.32;92191.72;2095895;28;20021;-84
2021/04/27 02:29:16;;;;;;;3.97;3.65;;;;;;;-0.53;74.03;92192.47;2104388;28;20122;-84
2021/04/27 02:30:19;;;;;;;5.85;3.80;;;;;;;-0.49;73.30;92185.38;2107090;28;20032;-84
2021/04/27 02:31:20;;;;;;;4.63;4.10;;;;;;;-0.55;73.73;92182.38;2112976;28;20031;-83
2021/04/27 02:32:21;;;;;;;7.32;4.43;;;;;;;-0.58;73.58;92185.72;2112668;28;20111;-84
2021/04/27 02:33:24;;;;;;;5.40;4.22;;;;;;;-0.49;72.66;92182.00;2112324;28;20030;-84
2021/04/27 02:34:26;;;;;;;8.90;4.47;;;;;;;-0.60;72.74;92180.09;2112520;28;20107;-83
2021/04/27 02:35:27;;;;;;;5.25;3.60;;;;;;;-0.61;72.44;92178.59;2104720;28;20150;-83
2021/04/27 02:36:28;;;;;;;7.88;3.92;;;;;;;-0.62;72.51;92182.31;2112155;28;20028;-83
2021/04/27 02:37:28;;;;;;;6.82;4.00;;;;;;;-0.61;72.75;92180.47;2112616;28;20034;-85
2021/04/27 02:38:29;;;;;;;5.43;4.55;;;;;;;-0.66;72.62;92186.81;2112646;28;20424;-84
2021/04/27 02:39:30;;;;;;;4.28;3.83;;;;;;;-0.74;73.28;92180.03;2112339;28;20039;-83
2021/04/27 02:40:30;;;;;;;6.35;4.20;;;;;;;-0.78;73.11;92184.50;2112505;28;20073;-83
2021/04/27 02:41:31;;;;;;;6.07;3.97;;;;;;;-0.69;72.98;92184.94;2112609;28;20031;-84
2021/04/27 02:42:36;;;;;;;4.13;3.45;;;;;;;-0.95;74.03;92191.16;2104266;28;20034;-83
2021/04/27 02:43:41;;;;;;;7.88;4.18;;;;;;;-0.92;73.98;92184.41;2105210;28;20537;-84
2021/04/27 02:44:42;;;;;;;4.95;3.33;;;;;;;-0.99;73.48;92184.38;2112955;28;20024;-84
2021/04/27 02:45:43;;;;;;;5.60;3.75;;;;;;;-0.93;73.56;92185.53;2112671;28;20036;-83
2021/04/27 02:46:45;;;;;;;6.05;4.03;;;;;;;-0.90;73.42;92187.44;2116216;27;20027;-81
2021/04/27 02:47:47;;;;;;;6.78;4.30;;;;;;;-0.94;74.07;92181.41;2119444;28;20023;-82
2021/04/27 02:48:47;;;;;;;5.38;3.70;;;;;;;-0.90;73.64;92182.94;2120738;27;20035;-84
2021/04/27 02:49:48;;;;;;;5.72;3.75;;;;;;;-1.05;73.96;92178.75;2120967;28;20046;-82
2021/04/27 02:50:54;;;;;;;5.90;4.25;;;;;;;-1.12;74.15;92179.44;2112491;28;20024;-83
2021/04/27 02:51:55;;;;;;;4.43;4.00;;;;;;;-1.11;74.00;92180.94;2113158;28;20477;-82
2021/04/27 02:52:55;;;;;;;7.63;3.92;;;;;;;-1.07;73.76;92173.09;2104081;28;20024;-83
2021/04/27 02:53:56;;;;;;;7.03;3.35;;;;;;;-1.13;73.77;92180.56;2103892;28;20062;-85
2021/04/27 02:54:57;;;;;;;5.15;3.72;;;;;;;-1.11;74.12;92175.69;2099710;28;20115;-83
2021/04/27 02:55:58;;;;;;;4.03;3.72;;;;;;;-1.02;74.03;92175.38;2104223;28;20503;-84
2021/04/27 02:56:58;;;;;;;4.53;3.67;;;;;;;-1.18;74.60;92174.91;2112536;28;20032;-82
2021/04/27 02:57:59;;;;;;;6.10;3.78;;;;;;;-1.15;74.08;92172.28;2112152;28;20038;-83
2021/04/27 02:59:00;;;;;;;5.47;4.00;;;;;;;-1.23;74.78;92175.97;2112481;28;20023;-83
2021/04/27 03:00:04;;;;;;;4.25;3.85;;;;;;;-1.20;74.53;92172.63;2112322;28;20031;-84
2021/04/27 03:01:05;;;;;;;6.28;4.50;;;;;;;-1.21;74.17;92173.00;2104861;28;20039;-85
2021/04/27 03:02:05;;;;;;;5.15;3.70;;;;;;;-1.18;74.96;92178.28;2120953;27;20094;-84
2021/04/27 03:03:07;;;;;;;6.78;3.78;;;;;;;-1.17;74.60;92171.91;2112325;28;20055;-81
2021/04/27 03:04:07;;;;;;;4.10;3.70;;;;;;;-1.15;74.10;92174.16;2120701;27;20447;-82
2021/04/27 03:05:08;;;;;;;4.15;3.30;;;;;;;-1.29;74.60;92178.19;2120707;28;20469;-84
2021/04/27 03:06:09;;;;;;;5.20;4.00;;;;;;;-1.20;75.13;92166.63;2112471;28;20027;-84
2021/04/27 03:07:10;;;;;;;4.80;3.72;;;;;;;-1.28;75.21;92171.06;2112463;28;20540;-82
2021/04/27 03:08:11;;;;;;;3.83;3.30;;;;;;;-1.22;74.76;92167.00;2112240;28;20130;-80
2021/04/27 03:09:12;;;;;;;7.10;3.50;;;;;;;-1.25;74.71;92175.59;2112396;28;20071;-84
2021/04/27 03:10:13;;;;;;;3.55;3.20;;;;;;;-1.32;75.01;92168.47;2109941;28;20023;-83
2021/04/27 03:11:14;;;;;;;3.92;3.60;;;;;;;-1.30;74.50;92170.69;2112345;28;20119;-83
2021/04/27 03:12:15;;;;;;;5.90;3.90;;;;;;;-1.36;75.67;92167.69;2103682;28;20020;-84
2021/04/27 03:13:15;;;;;;;6.22;3.60;;;;;;;-1.24;74.98;92165.88;2100577;28;20020;-81
2021/04/27 03:14:16;;;;;;;6.35;3.90;;;;;;;-1.33;74.69;92169.56;2105211;28;20107;-82
2021/04/27 03:15:18;;;;;;;4.97;3.60;;;;;;;-1.40;74.70;92174.75;2112354;28;20028;-81
2021/04/27 03:16:19;;;;;;;5.47;3.65;;;;;;;-1.32;75.44;92167.69;2114579;28;20035;-81
2021/04/27 03:17:19;;;;;;;5.00;3.97;;;;;;;-1.34;74.85;92165.44;2106910;28;20415;-81
2021/04/27 03:18:20;;;;;;;4.55;3.60;;;;;;;-1.36;74.45;92172.13;2106680;28;20031;-80
2021/04/27 03:19:21;;;;;;;4.32;3.67;;;;;;;-1.37;74.70;92168.03;2106666;28;20024;-82
2021/04/27 03:20:21;;;;;;;4.30;3.88;;;;;;;-1.37;74.93;92165.41;2099806;28;20021;-81
2021/04/27 03:21:22;;;;;;;6.63;3.78;;;;;;;-1.39;76.00;92159.78;2098232;28;20029;-80
2021/04/27 03:22:23;;;;;;;4.22;3.83;;;;;;;-1.54;76.95;92162.31;2090104;28;20021;-81
2021/04/27 03:23:24;;;;;;;4.75;3.67;;;;;;;-1.41;75.27;92162.00;2098164;28;20048;-83
2021/04/27 03:24:24;;;;;;;6.53;3.70;;;;;;;-1.46;75.25;92170.19;2097675;28;20108;-83
2021/04/27 03:25:25;;;;;;;3.70;3.40;;;;;;;-1.48;75.04;92172.44;2106589;28;20457;-81
2021/04/27 03:26:26;;;;;;;5.85;3.50;;;;;;;-1.52;76.01;92162.69;2098381;28;20066;-82
2021/04/27 03:27:26;;;;;;;5.30;4.10;;;;;;;-1.43;75.51;92164.25;2090106;28;20025;-80
2021/04/27 03:28:27;;;;;;;7.68;3.90;;;;;;;-1.43;74.90;92161.63;2089905;28;20025;-80
2021/04/27 03:29:28;;;;;;;4.65;3.40;;;;;;;-1.44;74.65;92166.13;2090084;28;20056;-82
2021/04/27 03:30:28;;;;;;;6.07;3.80;;;;;;;-1.42;74.24;92171.72;2098307;28;20024;-81
2021/04/27 03:31:30;;;;;;;3.95;3.45;;;;;;;-1.47;74.87;92166.84;2102004;28;20013;-81
2021/04/27 03:32:31;;;;;;;7.47;4.40;;;;;;;-1.44;74.68;92165.38;2106584;28;20027;-81
2021/04/27 03:33:31;;;;;;;7.07;3.42;;;;;;;-1.54;75.42;92161.53;2098393;28;20447;-81
2021/04/27 03:34:32;;;;;;;4.57;4.00;;;;;;;-1.56;75.32;92167.13;2114712;28;20019;-81
2021/04/27 03:35:33;;;;;;;6.95;3.90;;;;;;;-1.46;75.02;92164.97;2106470;28;20027;-83
2021/04/27 03:36:33;;;;;;;6.07;3.85;;;;;;;-1.55;75.44;92167.88;2117768;27;20020;-80
2021/04/27 03:37:34;;;;;;;3.90;3.53;;;;;;;-1.62;76.85;92162.59;2109600;28;20030;-81
2021/04/27 03:38:35;;;;;;;6.47;4.18;;;;;;;-1.67;77.48;92166.28;2089920;28;20085;-80
2021/04/27 03:39:36;;;;;;;4.82;3.67;;;;;;;-1.54;75.19;92167.53;2101110;28;20499;-84
2021/04/27 03:40:40;;;;;;;5.00;4.13;;;;;;;-1.68;75.51;92169.28;2106666;28;20595;-82
2021/04/27 03:41:41;;;;;;;7.75;3.75;;;;;;;-1.67;76.26;92162.91;2104190;28;20539;-84
2021/04/27 03:42:42;;;;;;;4.30;3.55;;;;;;;-1.71;76.25;92162.91;2098120;28;20514;-83
2021/04/27 03:43:42;;;;;;;8.02;3.92;;;;;;;-1.67;75.52;92166.28;2106367;28;20472;-82
2021/04/27 03:44:43;;;;;;;5.28;3.85;;;;;;;-1.55;75.21;92168.63;2114969;28;20016;-83
2021/04/27 03:45:44;;;;;;;4.88;3.95;;;;;;;-1.66;75.63;92170.44;2106368;28;20024;-84
2021/04/27 03:46:45;;;;;;;4.35;3.95;;;;;;;-1.65;75.34;92166.69;2094239;28;20486;-82
2021/04/27 03:47:47;;;;;;;6.85;3.20;;;;;;;-1.67;75.65;92168.16;2098024;28;20063;-83
2021/04/27 03:48:47;;;;;;;6.10;3.75;;;;;;;-1.68;76.08;92172.66;2089571;28;20029;-83
2021/04/27 03:49:51;;;;;;;4.10;3.80;;;;;;;-1.65;75.61;92166.69;2100394;28;20458;-83
2021/04/27 03:50:52;;;;;;;5.03;3.47;;;;;;;-1.58;75.53;92169.38;2090167;28;20048;-84
2021/04/27 03:51:52;;;;;;;8.50;3.80;;;;;;;-1.64;75.79;92162.94;2098223;28;20414;-84
2021/04/27 03:52:53;;;;;;;4.22;3.55;;;;;;;-1.66;76.29;92167.06;2097972;28;20070;-83
2021/04/27 03:53:54;;;;;;;4.20;3.70;;;;;;;-1.73;76.17;92165.13;2093578;28;20506;-84
2021/04/27 03:54:54;;;;;;;5.50;4.82;;;;;;;-1.78;76.52;92162.84;2097725;28;20095;-83
2021/04/27 03:55:55;;;;;;;5.57;3.80;;;;;;;-1.76;76.09;92155.38;2105936;28;20103;-84
2021/04/27 03:56:56;;;;;;;4.38;3.78;;;;;;;-1.87;76.36;92162.41;2098313;28;20092;-83
2021/04/27 03:57:56;;;;;;;4.05;3.63;;;;;;;-1.85;77.08;92166.13;2106074;28;20157;-83
2021/04/27 03:58:58;;;;;;;5.00;3.80;;;;;;;-1.80;76.20;92160.59;2114692;28;20031;-83
2021/04/27 03:59:58;;;;;;;7.45;3.97;;;;;;;-1.88;75.99;92159.03;2097941;28;20023;-83
2021/04/27 04:00:59;;;;;;;5.78;3.83;;;;;;;-1.78;76.22;92160.97;2105986;28;20461;-84
2021/04/27 04:02:00;;;;;;;9.43;4.38;;;;;;;-1.82;75.85;92164.69;2123260;27;20055;-83
2021/04/27 04:03:01;;;;;;;7.30;4.10;;;;;;;-1.74;76.32;92162.88;2106157;28;20020;-83
2021/04/27 04:04:02;;;;;;;6.30;4.13;;;;;;;-1.73;76.28;92156.53;2106144;28;20064;-84
2021/04/27 04:05:03;;;;;;;5.38;3.67;;;;;;;-1.89;76.45;92162.75;2114890;28;20432;-85
2021/04/27 04:06:04;;;;;;;6.50;3.95;;;;;;;-1.84;76.71;92159.06;2106167;28;20020;-86
2021/04/27 04:07:04;;;;;;;5.85;3.65;;;;;;;-1.80;76.17;92160.59;2092781;28;21077;-84
2021/04/27 04:08:05;;;;;;;4.45;3.72;;;;;;;-1.85;76.08;92154.91;2089741;28;20104;-83
2021/04/27 04:09:09;;;;;;;6.47;3.88;;;;;;;-1.91;77.20;92169.47;2081355;28;20028;-83
2021/04/27 04:10:12;;;;;;;4.47;3.83;;;;;;;-1.83;76.44;92163.19;2082361;28;20018;-84
2021/04/27 04:11:13;;;;;;;6.32;3.85;;;;;;;-1.78;76.25;92162.84;2094436;28;20439;-84
2021/04/27 04:12:14;;;;;;;4.75;3.53;;;;;;;-1.92;76.95;92157.50;2114565;28;21071;-82
2021/04/27 04:13:15;;;;;;;6.30;3.90;;;;;;;-1.96;77.14;92167.94;2103294;28;20035;-84
2021/04/27 04:14:15;;;;;;;3.92;3.53;;;;;;;-1.90;76.62;92168.34;2089573;28;20032;-84
2021/04/27 04:15:19;;;;;;;3.53;3.22;;;;;;;-1.91;76.40;92158.97;2094962;28;20486;-83
2021/04/27 04:16:20;;;;;;;4.82;3.80;;;;;;;-1.89;76.72;92169.84;2105947;28;20048;-84
2021/04/27 04:17:20;;;;;;;4.75;3.50;;;;;;;-1.93;76.59;92163.81;2081116;28;21043;-82
2021/04/27 04:18:21;;;;;;;3.85;3.30;;;;;;;-2.00;77.18;92169.75;2089534;28;20479;-84
2021/04/27 04:19:22;;;;;;;4.03;3.38;;;;;;;-1.90;76.89;92166.47;2097772;28;20016;-83
2021/04/27 04:20:24;;;;;;;8.43;3.55;;;;;;;-1.99;76.87;92168.63;2097919;28;20077;-84
2021/04/27 04:21:25;;;;;;;3.95;3.50;;;;;;;-1.88;76.64;92163.50;2097988;28;20107;-82
2021/04/27 04:22:26;;;;;;;7.30;3.30;;;;;;;-1.97;76.02;92170.91;2097649;28;20438;-84
2021/04/27 04:23:28;;;;;;;6.13;3.75;;;;;;;-1.93;76.23;92158.56;2105829;28;20026;-84
2021/04/27 04:24:29;;;;;;;6.50;3.50;;;;;;;-1.77;76.47;92157.22;2089219;28;20044;-84
2021/04/27 04:25:30;;;;;;;7.80;3.72;;;;;;;-1.85;76.47;92157.53;2097811;28;20748;-82
2021/04/27 04:26:30;;;;;;;5.82;3.80;;;;;;;-1.86;75.91;92163.88;2102240;28;20016;-83
2021/04/27 04:27:31;;;;;;;6.80;3.75;;;;;;;-1.83;76.56;92152.69;2106466;28;20036;-84
2021/04/27 04:28:32;;;;;;;7.20;3.78;;;;;;;-1.92;76.82;92153.00;2105328;28;20020;-82
2021/04/27 04:29:33;;;;;;;5.47;3.90;;;;;;;-1.98;77.61;92158.91;2114258;28;20031;-84
2021/04/27 04:30:33;;;;;;;5.05;3.65;;;;;;;-1.90;76.39;92160.47;2126905;27;20538;-84
2021/04/27 04:31:34;;;;;;;4.95;3.67;;;;;;;-1.85;77.07;92162.78;2121320;27;20113;-83
2021/04/27 04:32:35;;;;;;;5.10;4.15;;;;;;;-1.98;77.32;92159.66;2102122;28;20055;-84
2021/04/27 04:33:35;;;;;;;4.68;3.78;;;;;;;-1.94;77.03;92157.81;2100000;28;20030;-81
2021/04/27 04:34:36;;;;;;;5.78;3.78;;;;;;;-1.91;76.92;92162.34;2105568;28;20509;-83
2021/04/27 04:35:37;;;;;;;6.07;3.92;;;;;;;-1.89;76.89;92156.75;2117719;27;20015;-84
2021/04/27 04:36:38;;;;;;;4.50;4.00;;;;;;;-1.93;76.34;92164.59;2098867;28;20054;-83
2021/04/27 04:37:39;;;;;;;3.75;3.45;;;;;;;-2.08;76.66;92158.44;2110643;28;20436;-83
2021/04/27 04:38:39;;;;;;;7.60;3.97;;;;;;;-2.13;78.22;92158.03;2108024;28;20024;-83
2021/04/27 04:39:40;;;;;;;6.22;4.10;;;;;;;-2.15;77.52;92162.84;2097576;28;20111;-84
2021/04/27 04:40:41;;;;;;;5.95;3.90;;;;;;;-2.06;76.76;92156.25;2097568;28;20130;-83
2021/04/27 04:41:41;;;;;;;5.68;3.70;;;;;;;-1.91;76.98;92148.50;2097474;28;20048;-83
2021/04/27 04:42:42;;;;;;;5.38;3.95;;;;;;;-1.90;76.80;92152.63;2097732;28;20455;-83
2021/04/27 04:43:43;;;;;;;6.88;3.90;;;;;;;-1.92;77.41;92154.88;2110192;28;20024;-83
2021/04/27 04:44:44;;;;;;;5.38;3.88;;;;;;;-1.93;76.82;92161.19;2106030;28;20442;-83
2021/04/27 04:45:45;;;;;;;3.88;3.50;;;;;;;-1.89;77.27;92157.53;2105920;28;20020;-83
2021/04/27 04:46:46;;;;;;;5.95;4.40;;;;;;;-1.82;76.89;92151.59;2102170;28;20066;-85
2021/04/27 04:47:47;;;;;;;5.07;4.38;;;;;;;-1.94;76.76;92164.94;2097479;28;20442;-82
2021/04/27 04:48:48;;;;;;;5.28;3.65;;;;;;;-1.78;76.17;92160.22;2107688;28;20039;-84
2021/04/27 04:49:49;;;;;;;7.07;3.88;;;;;;;-1.83;76.43;92158.69;2105881;28;20446;-82
2021/04/27 04:50:49;;;;;;;5.10;4.05;;;;;;;-1.78;76.91;92157.59;2097501;28;20044;-83
2021/04/27 04:51:51;;;;;;;7.18;3.92;;;;;;;-1.80;76.63;92157.97;2105714;28;20030;-86
2021/04/27 04:52:52;;;;;;;8.48;3.97;;;;;;;-1.82;76.94;92154.19;2097745;28;20016;-84
2021/04/27 04:53:53;;;;;;;7.13;4.38;;;;;;;-1.83;76.66;92155.31;2092183;28;21074;-83